You are listening to:
LKPR Approach - Prague, Czech Republic

LKPR 180430Z VRB02KT 9999 BKN020 10/07 Q1004 NOSIG

If stream does not start automatically press the play button